createdAt,value
2022-12-23T00:05:04.849Z,18.70
2022-12-23T00:10:10.629Z,17.42
2022-12-23T00:15:15.936Z,19.67
2022-12-23T00:20:21.382Z,21.08
2022-12-23T00:25:45.118Z,18.30
2022-12-23T00:30:54.616Z,18.00
2022-12-23T00:36:00.330Z,16.05
2022-12-23T00:41:27.307Z,16.30
2022-12-23T00:46:32.867Z,18.27
2022-12-23T00:51:38.314Z,23.70
2022-12-23T00:56:44.044Z,21.10
2022-12-23T01:02:09.250Z,15.57
2022-12-23T01:07:14.554Z,24.17
2022-12-23T01:12:20.827Z,21.77
2022-12-23T01:17:26.155Z,20.35
2022-12-23T01:22:31.448Z,18.48
2022-12-23T01:27:36.861Z,21.30
2022-12-23T01:32:42.139Z,22.98
2022-12-23T01:37:47.428Z,19.73
2022-12-23T01:42:52.579Z,23.85
2022-12-23T01:48:16.698Z,21.77
2022-12-23T01:53:34.220Z,21.50
2022-12-23T01:58:52.853Z,19.92
2022-12-23T02:04:01.451Z,28.58
2022-12-23T02:09:37.323Z,24.38
2022-12-23T02:15:30.654Z,21.30
2022-12-23T02:20:54.473Z,29.45
2022-12-23T02:26:34.999Z,23.80
2022-12-23T02:32:14.255Z,25.27
2022-12-23T02:37:59.781Z,19.20
2022-12-23T02:43:31.478Z,19.27
2022-12-23T02:48:44.631Z,20.88
2022-12-23T02:54:00.300Z,22.08
2022-12-23T02:59:43.954Z,21.20
2022-12-23T03:04:49.257Z,26.02
2022-12-23T03:10:32.729Z,23.20
2022-12-23T03:16:21.826Z,20.57
2022-12-23T03:21:51.163Z,19.63
2022-12-23T03:27:34.042Z,20.52
2022-12-23T03:38:19.849Z,18.75
2022-12-23T03:43:50.637Z,22.80
2022-12-23T03:49:07.013Z,20.70
2022-12-23T03:54:20.246Z,23.60
2022-12-23T03:59:29.578Z,14.57
2022-12-23T04:05:00.038Z,23.00
2022-12-23T04:10:07.133Z,28.00
2022-12-23T04:15:13.360Z,16.67
2022-12-23T04:20:18.901Z,24.73
2022-12-23T04:25:24.140Z,29.02
2022-12-23T04:30:33.885Z,29.98
2022-12-23T04:35:40.373Z,25.17
2022-12-23T04:40:48.740Z,24.65
2022-12-23T04:45:53.818Z,22.55
2022-12-23T04:51:02.019Z,19.80
2022-12-23T04:56:06.125Z,18.17
2022-12-23T05:01:12.130Z,17.20
2022-12-23T05:06:17.053Z,20.02
2022-12-23T05:11:21.178Z,16.05
2022-12-23T05:16:25.563Z,23.30
2022-12-23T05:21:30.044Z,25.23
2022-12-23T05:26:36.887Z,22.23
2022-12-23T05:31:42.220Z,29.42
2022-12-23T05:36:49.180Z,25.95
2022-12-23T05:41:53.368Z,25.48
2022-12-23T05:46:57.567Z,19.60
2022-12-23T05:52:01.681Z,20.98
2022-12-23T05:57:07.139Z,22.88
2022-12-23T06:02:11.679Z,26.25
2022-12-23T06:07:15.962Z,27.38
2022-12-23T06:12:19.949Z,26.77
2022-12-23T06:17:24.144Z,23.02
2022-12-23T06:22:28.216Z,22.58
2022-12-23T06:27:32.397Z,24.35
2022-12-23T06:32:38.830Z,18.23
2022-12-23T06:37:43.427Z,20.13
2022-12-23T06:42:48.962Z,25.30
2022-12-23T06:47:53.469Z,23.08
2022-12-23T06:52:57.614Z,28.95
2022-12-23T06:58:01.980Z,22.60
2022-12-23T07:03:06.192Z,25.25
2022-12-23T07:08:10.465Z,23.10
2022-12-23T07:13:14.579Z,21.60
2022-12-23T07:18:18.576Z,27.83
2022-12-23T07:23:22.588Z,22.67
2022-12-23T07:28:26.627Z,24.85
2022-12-23T07:33:34.857Z,24.35
2022-12-23T07:38:38.936Z,22.70
2022-12-23T07:43:43.030Z,20.10
2022-12-23T07:48:47.063Z,23.10
2022-12-23T07:53:52.032Z,22.65
2022-12-23T07:58:56.612Z,19.67
2022-12-23T08:04:01.078Z,21.10
2022-12-23T08:09:07.027Z,26.95
2022-12-23T08:14:11.223Z,23.27
2022-12-23T08:19:16.153Z,19.73
2022-12-23T08:24:20.115Z,33.63
2022-12-23T08:29:24.205Z,29.88
2022-12-23T08:34:28.402Z,21.92
2022-12-23T08:39:32.519Z,27.40
2022-12-23T08:44:36.679Z,26.02
2022-12-23T08:49:42.475Z,24.45
2022-12-23T08:54:49.116Z,26.08
2022-12-23T08:59:53.192Z,19.55
2022-12-23T09:04:57.427Z,23.38
2022-12-23T09:10:01.519Z,18.08
2022-12-23T09:15:07.074Z,20.88
2022-12-23T09:20:11.556Z,29.67
2022-12-23T09:25:16.222Z,30.42
2022-12-23T09:30:20.487Z,28.80
2022-12-23T09:35:24.747Z,23.20
2022-12-23T09:40:31.404Z,21.60
2022-12-23T09:45:58.929Z,28.27
2022-12-23T09:51:04.474Z,20.77
2022-12-23T09:56:20.657Z,20.58
2022-12-23T10:01:42.951Z,18.85
2022-12-23T10:07:05.336Z,21.00
2022-12-23T10:12:28.198Z,16.25
2022-12-23T10:17:47.107Z,15.43
2022-12-23T10:22:53.211Z,14.02
2022-12-23T10:27:57.290Z,16.70
2022-12-23T10:33:24.063Z,28.90
2022-12-23T10:38:55.991Z,18.38
2022-12-23T10:44:15.165Z,13.45
2022-12-23T10:49:38.205Z,12.48
2022-12-23T10:54:44.821Z,25.50
2022-12-23T10:59:48.926Z,16.88
2022-12-23T11:04:52.826Z,15.00
2022-12-23T11:10:04.482Z,14.40
2022-12-23T11:15:34.024Z,17.35
2022-12-23T11:20:42.396Z,13.60
2022-12-23T11:25:47.288Z,17.67
2022-12-23T11:30:57.275Z,21.63
2022-12-23T11:36:17.216Z,16.77
2022-12-23T11:41:46.478Z,14.45
2022-12-23T11:46:52.823Z,23.30
2022-12-23T11:52:21.013Z,26.67
2022-12-23T11:57:48.923Z,17.65
2022-12-23T12:02:56.752Z,14.45
2022-12-23T12:08:14.815Z,14.93
2022-12-23T12:14:04.899Z,14.38
2022-12-23T12:19:21.170Z,24.58
2022-12-23T12:24:32.684Z,32.78
2022-12-23T12:29:49.774Z,12.95
2022-12-23T12:35:30.860Z,11.05
2022-12-23T12:40:43.985Z,16.77
2022-12-23T12:46:14.564Z,12.95
2022-12-23T12:51:21.500Z,13.75
2022-12-23T12:56:36.284Z,10.65
2022-12-23T13:02:02.992Z,11.15
2022-12-23T13:07:32.129Z,12.63
2022-12-23T13:13:22.282Z,11.25
2022-12-23T13:18:46.295Z,14.00
2022-12-23T13:24:16.396Z,10.95
2022-12-23T13:29:45.070Z,13.52
2022-12-23T13:35:36.715Z,14.13
2022-12-23T13:41:06.467Z,14.90
2022-12-23T13:46:28.260Z,13.73
2022-12-23T13:51:41.658Z,13.20
2022-12-23T13:57:11.406Z,15.15
2022-12-23T14:03:04.352Z,13.65
2022-12-23T14:08:28.152Z,12.40
2022-12-23T14:13:58.544Z,12.80
2022-12-23T14:19:13.907Z,12.60
2022-12-23T14:25:03.259Z,14.35
2022-12-23T14:30:48.667Z,13.80
2022-12-23T14:35:57.904Z,13.07
2022-12-23T14:41:47.513Z,12.20
2022-12-23T14:46:55.053Z,12.02
2022-12-23T14:52:44.865Z,13.90
2022-12-23T14:58:07.427Z,12.40
2022-12-23T15:03:15.347Z,13.90
2022-12-23T15:08:40.761Z,13.15
2022-12-23T15:13:47.618Z,12.27
2022-12-23T15:18:55.892Z,10.93
2022-12-23T15:24:01.481Z,11.60
2022-12-23T15:29:08.681Z,10.82
2022-12-23T15:34:24.846Z,12.45
2022-12-23T15:39:37.153Z,10.18
2022-12-23T15:44:42.439Z,9.70
2022-12-23T15:49:47.606Z,10.65
2022-12-23T15:54:56.159Z,14.63
2022-12-23T16:00:02.446Z,12.60
2022-12-23T16:05:47.841Z,14.98
2022-12-23T16:11:39.111Z,17.90
2022-12-23T16:16:44.514Z,13.45
2022-12-23T16:21:50.382Z,13.25
2022-12-23T16:26:57.183Z,13.73
2022-12-23T16:32:02.622Z,13.93
2022-12-23T16:37:08.967Z,16.15
2022-12-23T16:42:14.430Z,10.18
2022-12-23T16:47:20.645Z,11.55
2022-12-23T16:52:25.886Z,11.18
2022-12-23T16:57:31.378Z,10.88
2022-12-23T17:02:36.892Z,11.30
2022-12-23T17:07:45.413Z,12.77
2022-12-23T17:12:53.724Z,13.57
2022-12-23T17:17:59.108Z,14.73
2022-12-23T17:23:04.594Z,13.77
2022-12-23T17:28:11.689Z,14.32
2022-12-23T17:33:20.055Z,16.52
2022-12-23T17:38:25.802Z,11.38
2022-12-23T17:43:31.089Z,22.15
2022-12-23T17:48:36.652Z,16.13
2022-12-23T17:53:42.085Z,17.67
2022-12-23T17:58:49.659Z,12.18
2022-12-23T18:03:56.087Z,22.92
2022-12-23T18:09:01.546Z,13.65
2022-12-23T18:14:20.638Z,19.17
2022-12-23T18:19:26.824Z,13.90
2022-12-23T18:24:32.426Z,17.52
2022-12-23T18:29:37.789Z,9.90
2022-12-23T18:34:43.067Z,12.15
2022-12-23T18:39:48.790Z,15.77
2022-12-23T18:44:54.229Z,12.10
2022-12-23T18:49:59.577Z,9.27
2022-12-23T18:55:07.334Z,9.25
2022-12-23T19:00:16.814Z,8.85
2022-12-23T19:05:28.878Z,8.93
2022-12-23T19:10:34.705Z,9.75
2022-12-23T19:15:43.147Z,9.52
2022-12-23T19:20:49.539Z,6.90
2022-12-23T19:25:55.640Z,10.35
2022-12-23T19:31:01.194Z,10.82
2022-12-23T19:36:12.330Z,9.73
2022-12-23T19:41:18.051Z,9.02
2022-12-23T19:46:23.586Z,7.07
2022-12-23T19:51:28.814Z,8.00
2022-12-23T19:56:35.750Z,6.30
2022-12-23T20:01:41.516Z,6.03
2022-12-23T20:06:47.281Z,5.78
2022-12-23T20:11:52.677Z,6.18
2022-12-23T20:16:57.857Z,5.82
2022-12-23T20:22:03.979Z,7.45
2022-12-23T20:27:12.104Z,6.45
2022-12-23T20:32:21.551Z,5.78
2022-12-23T20:37:30.157Z,6.90
2022-12-23T20:42:35.356Z,6.93
2022-12-23T20:47:40.814Z,7.88
2022-12-23T20:52:45.783Z,7.93
2022-12-23T20:57:51.025Z,7.57
2022-12-23T21:02:57.358Z,7.50
2022-12-23T21:08:03.223Z,7.53
2022-12-23T21:13:08.480Z,9.45
2022-12-23T21:18:14.307Z,6.63
2022-12-23T21:23:20.064Z,7.22
2022-12-23T21:28:25.409Z,6.30
2022-12-23T21:33:30.896Z,7.05
2022-12-23T21:38:38.587Z,8.07
2022-12-23T21:43:44.262Z,6.95
2022-12-23T21:48:51.208Z,8.52
2022-12-23T21:53:58.655Z,7.30
2022-12-23T21:59:12.562Z,9.07
2022-12-23T22:04:18.210Z,14.82
2022-12-23T22:09:23.684Z,8.57
2022-12-23T22:14:29.077Z,11.00
2022-12-23T22:19:35.628Z,26.92
2022-12-23T22:24:41.062Z,24.13
2022-12-23T22:29:46.419Z,39.38
2022-12-23T22:34:51.871Z,15.13
2022-12-23T22:39:57.153Z,16.40
2022-12-23T22:45:02.647Z,23.48
2022-12-23T22:50:09.692Z,41.05
2022-12-23T22:55:15.077Z,17.02
2022-12-23T23:00:20.773Z,15.40
2022-12-23T23:05:26.204Z,18.52
2022-12-23T23:10:32.425Z,14.73
2022-12-23T23:15:37.825Z,14.77
2022-12-23T23:20:43.391Z,14.77
2022-12-23T23:25:49.301Z,16.00
2022-12-23T23:31:16.697Z,15.73
2022-12-23T23:36:20.789Z,20.63
2022-12-23T23:41:26.192Z,17.50
2022-12-23T23:46:32.269Z,19.98
2022-12-23T23:51:37.602Z,25.23
2022-12-23T23:56:42.960Z,20.58
